createdAt,value
2019-04-21T00:00:31.931Z,28.70
2019-04-21T00:03:11.699Z,28.70
2019-04-21T00:05:58.863Z,28.80
2019-04-21T00:11:09.426Z,28.80
2019-04-21T00:13:32.882Z,28.80
2019-04-21T00:15:59.232Z,28.80
2019-04-21T00:18:50.673Z,28.80
2019-04-21T00:21:26.491Z,28.80
2019-04-21T00:24:05.850Z,28.90
2019-04-21T00:26:45.883Z,28.90
2019-04-21T00:29:19.262Z,29.00
2019-04-21T00:31:45.575Z,29.00
2019-04-21T00:34:07.319Z,29.10
2019-04-21T00:36:51.528Z,29.10
2019-04-21T00:39:43.909Z,29.20
2019-04-21T00:42:05.169Z,29.20
2019-04-21T00:44:35.868Z,29.30
2019-04-21T00:47:23.821Z,29.30
2019-04-21T00:49:55.390Z,29.30
2019-04-21T00:52:46.121Z,29.30
2019-04-21T00:55:18.774Z,29.40
2019-04-21T00:57:38.747Z,29.40
2019-04-21T01:00:11.879Z,29.50
2019-04-21T01:02:51.115Z,29.40
2019-04-21T01:05:21.358Z,29.40
2019-04-21T01:07:50.388Z,29.40
2019-04-21T01:10:20.997Z,29.50
2019-04-21T01:13:02.723Z,29.50
2019-04-21T01:15:43.956Z,29.50
2019-04-21T01:18:09.098Z,29.50
2019-04-21T01:20:23.869Z,29.60
2019-04-21T01:22:56.235Z,29.60
2019-04-21T01:25:36.807Z,29.60
2019-04-21T01:28:19.927Z,29.50
2019-04-21T01:30:59.457Z,29.50
2019-04-21T01:33:34.979Z,29.50
2019-04-21T01:36:06.672Z,29.50
2019-04-21T01:38:40.133Z,29.60
2019-04-21T01:41:21.853Z,29.60
2019-04-21T01:43:45.800Z,29.70
2019-04-21T01:46:15.114Z,29.70
2019-04-21T01:48:49.293Z,29.80
2019-04-21T01:51:23.638Z,29.80
2019-04-21T01:54:08.855Z,29.80
2019-04-21T01:56:42.794Z,29.90
2019-04-21T01:59:03.474Z,29.90
2019-04-21T02:01:49.293Z,30.00
2019-04-21T02:04:34.690Z,30.00
2019-04-21T02:06:57.277Z,30.00
2019-04-21T02:09:38.249Z,30.00
2019-04-21T02:12:17.169Z,30.00
2019-04-21T02:14:51.536Z,30.00
2019-04-21T02:17:23.851Z,30.00
2019-04-21T02:19:50.334Z,30.10
2019-04-21T02:22:35.222Z,30.20
2019-04-21T02:25:10.866Z,30.40
2019-04-21T02:27:40.892Z,30.50
2019-04-21T02:30:24.761Z,30.60
2019-04-21T02:33:04.035Z,30.70
2019-04-21T02:45:46.716Z,31.70
2019-04-21T02:50:55.032Z,31.90
2019-04-21T02:53:39.106Z,32.00
2019-04-21T02:56:11.548Z,32.10
2019-04-21T03:09:33.452Z,32.00
2019-04-21T03:12:05.414Z,32.00
2019-04-21T03:14:47.921Z,32.20
2019-04-21T03:17:14.661Z,32.50
2019-04-21T03:22:24.926Z,32.80
2019-04-21T03:25:04.529Z,32.90
2019-04-21T03:30:14.259Z,32.80
2019-04-21T03:33:24.009Z,32.80
2019-04-21T03:35:53.399Z,32.90
2019-04-21T03:37:49.711Z,32.90
2019-04-21T03:40:21.726Z,33.00
2019-04-21T03:42:59.788Z,33.20
2019-04-21T03:45:39.130Z,33.40
2019-04-21T03:48:09.384Z,33.60
2019-04-21T03:50:33.139Z,33.70
2019-04-21T03:53:09.299Z,33.90
2019-04-21T03:55:53.066Z,34.00
2019-04-21T04:01:08.207Z,34.30
2019-04-21T04:04:06.322Z,34.30
2019-04-21T04:06:39.052Z,34.40
2019-04-21T04:09:26.480Z,34.60
2019-04-21T04:11:50.877Z,34.60
2019-04-21T04:14:33.322Z,34.80
2019-04-21T04:17:14.604Z,34.70
2019-04-21T04:22:14.591Z,34.90
2019-04-21T04:24:54.745Z,35.10
2019-04-21T04:29:59.207Z,35.10
2019-04-21T04:32:29.209Z,35.20
2019-04-21T04:37:46.959Z,35.30
2019-04-21T04:40:13.402Z,35.30
2019-04-21T04:43:09.744Z,35.20
2019-04-21T04:45:30.685Z,35.10
2019-04-21T04:47:59.066Z,35.10
2019-04-21T04:53:07.687Z,35.10
2019-04-21T04:55:39.533Z,35.10
2019-04-21T04:58:35.594Z,35.20
2019-04-21T05:00:48.047Z,35.30
2019-04-21T05:03:24.221Z,35.30
2019-04-21T05:06:31.714Z,35.40
2019-04-21T05:09:03.920Z,35.30
2019-04-21T05:19:21.931Z,35.60
2019-04-21T05:21:42.203Z,35.70
2019-04-21T05:24:08.076Z,35.80
2019-04-21T05:26:46.248Z,35.90
2019-04-21T05:29:13.494Z,35.80
2019-04-21T05:32:12.840Z,35.80
2019-04-21T05:34:30.549Z,36.00
2019-04-21T05:37:12.742Z,36.10
2019-04-21T05:39:41.957Z,36.30
2019-04-21T05:42:30.556Z,36.40
2019-04-21T05:45:23.032Z,36.70
2019-04-21T05:48:05.952Z,36.80
2019-04-21T05:50:30.440Z,37.10
2019-04-21T05:52:58.539Z,37.30
2019-04-21T05:55:46.406Z,37.50
2019-04-21T05:58:14.488Z,37.50
2019-04-21T06:03:47.688Z,37.70
2019-04-21T06:08:42.297Z,37.80
2019-04-21T06:14:02.614Z,38.20
2019-04-21T06:16:37.475Z,38.20
2019-04-21T06:19:22.316Z,38.10
2019-04-21T06:21:33.284Z,38.10
2019-04-21T06:24:18.235Z,38.30
2019-04-21T06:29:30.038Z,38.60
2019-04-21T06:32:30.524Z,38.30
2019-04-21T06:35:01.107Z,38.30
2019-04-21T06:37:39.617Z,38.20
2019-04-21T06:40:21.038Z,38.60
2019-04-21T06:42:40.189Z,38.70
2019-04-21T06:45:20.080Z,38.60
2019-04-21T06:48:01.120Z,38.40
2019-04-21T06:50:30.196Z,38.30
2019-04-21T06:53:10.800Z,38.50
2019-04-21T06:55:41.906Z,38.80
2019-04-21T06:58:10.104Z,38.90
2019-04-21T07:00:40.973Z,39.10
2019-04-21T07:06:03.227Z,39.40
2019-04-21T07:08:34.729Z,39.60
2019-04-21T07:11:05.390Z,39.70
2019-04-21T07:13:32.190Z,39.70
2019-04-21T07:16:12.047Z,39.90
2019-04-21T07:18:55.577Z,39.90
2019-04-21T07:21:23.552Z,39.80
2019-04-21T07:23:53.758Z,39.90
2019-04-21T07:26:28.294Z,40.00
2019-04-21T07:31:40.198Z,40.00
2019-04-21T07:36:50.867Z,40.00
2019-04-21T07:39:12.050Z,39.80
2019-04-21T07:41:47.021Z,39.70
2019-04-21T07:44:15.091Z,40.00
2019-04-21T07:46:44.088Z,39.90
2019-04-21T07:49:44.257Z,40.10
2019-04-21T07:52:22.175Z,40.10
2019-04-21T07:55:12.627Z,40.30
2019-04-21T07:57:35.216Z,40.40
2019-04-21T08:02:40.312Z,40.50
2019-04-21T08:07:51.900Z,40.50
2019-04-21T08:10:22.468Z,40.20
2019-04-21T08:12:55.706Z,39.90
2019-04-21T08:15:33.938Z,39.50
2019-04-21T08:18:00.699Z,39.10
2019-04-21T08:20:36.323Z,38.80
2019-04-21T08:23:14.161Z,38.60
2019-04-21T08:25:53.057Z,38.50
2019-04-21T08:28:20.799Z,38.20
2019-04-21T08:30:55.444Z,38.10
2019-04-21T08:33:34.519Z,37.80
2019-04-21T08:38:36.237Z,37.50
2019-04-21T08:41:08.594Z,37.30
2019-04-21T08:43:42.573Z,37.20
2019-04-21T08:46:20.259Z,37.00
2019-04-21T08:48:52.802Z,36.90
2019-04-21T08:51:43.087Z,36.80
2019-04-21T08:54:02.360Z,36.60
2019-04-21T08:56:41.331Z,36.50
2019-04-21T08:59:18.988Z,36.40
2019-04-21T09:02:02.639Z,36.40
2019-04-21T09:04:47.307Z,36.20
2019-04-21T09:07:28.752Z,36.10
2019-04-21T09:09:41.613Z,35.80
2019-04-21T09:12:16.117Z,35.80
2019-04-21T09:14:51.261Z,35.60
2019-04-21T09:17:16.387Z,35.40
2019-04-21T09:19:57.880Z,35.20
2019-04-21T09:22:30.454Z,35.20
2019-04-21T09:25:04.658Z,35.00
2019-04-21T09:27:35.628Z,34.90
2019-04-21T09:29:55.971Z,34.70
2019-04-21T09:32:29.412Z,34.60
2019-04-21T09:35:03.439Z,34.50
2019-04-21T09:37:44.346Z,34.40
2019-04-21T09:40:11.748Z,34.20
2019-04-21T09:42:53.176Z,34.10
2019-04-21T09:45:17.693Z,33.90
2019-04-21T09:47:59.000Z,33.80
2019-04-21T09:50:24.270Z,33.60
2019-04-21T09:53:03.950Z,33.50
2019-04-21T09:55:41.746Z,33.40
2019-04-21T09:58:13.440Z,33.20
2019-04-21T10:00:47.535Z,33.10
2019-04-21T10:03:15.691Z,33.00
2019-04-21T10:05:47.483Z,33.00
2019-04-21T10:08:19.908Z,33.00
2019-04-21T10:10:52.678Z,32.90
2019-04-21T10:13:25.389Z,32.90
2019-04-21T10:16:01.183Z,32.90
2019-04-21T10:18:33.903Z,32.80
2019-04-21T10:21:07.618Z,32.70
2019-04-21T10:23:41.508Z,32.70
2019-04-21T10:26:14.598Z,32.70
2019-04-21T10:28:47.009Z,32.60
2019-04-21T10:31:20.788Z,32.50
2019-04-21T10:33:54.534Z,32.50
2019-04-21T10:36:27.747Z,32.40
2019-04-21T10:39:02.319Z,32.40
2019-04-21T10:41:37.336Z,32.40
2019-04-21T10:44:11.446Z,32.30
2019-04-21T10:46:47.369Z,32.20
2019-04-21T10:49:18.975Z,32.20
2019-04-21T10:51:53.115Z,32.00
2019-04-21T10:54:24.413Z,32.00
2019-04-21T10:56:56.865Z,32.00
2019-04-21T10:59:29.062Z,31.90
2019-04-21T11:02:03.282Z,31.80
2019-04-21T11:04:38.254Z,31.70
2019-04-21T11:07:20.001Z,31.50
2019-04-21T11:09:52.341Z,31.50
2019-04-21T11:12:25.954Z,31.50
2019-04-21T11:14:59.615Z,31.50
2019-04-21T11:17:32.338Z,31.40
2019-04-21T11:20:06.600Z,31.40
2019-04-21T11:22:40.111Z,31.20
2019-04-21T11:25:12.885Z,31.10
2019-04-21T11:27:47.058Z,31.10
2019-04-21T11:30:20.040Z,31.00
2019-04-21T11:32:53.105Z,31.00
2019-04-21T11:35:27.618Z,30.90
2019-04-21T11:38:08.372Z,30.90
2019-04-21T11:40:36.079Z,30.80
2019-04-21T11:43:09.563Z,30.80
2019-04-21T11:45:44.666Z,30.80
2019-04-21T11:48:24.072Z,30.70
2019-04-21T11:50:57.289Z,30.60
2019-04-21T11:53:30.773Z,30.60
2019-04-21T11:56:03.105Z,30.40
2019-04-21T11:58:37.027Z,30.30
2019-04-21T12:01:09.746Z,30.30
2019-04-21T12:03:42.697Z,30.20
2019-04-21T12:06:15.489Z,30.20
2019-04-21T12:08:51.521Z,30.20
2019-04-21T12:11:23.329Z,30.30
2019-04-21T12:14:00.363Z,30.20
2019-04-21T12:16:33.127Z,30.20
2019-04-21T12:19:05.114Z,30.20
2019-04-21T12:21:49.158Z,30.30
2019-04-21T12:24:13.156Z,30.50
2019-04-21T12:26:46.350Z,30.60
2019-04-21T12:29:19.030Z,30.50
2019-04-21T12:32:03.489Z,30.30
2019-04-21T12:34:37.237Z,30.30
2019-04-21T12:37:10.958Z,30.40
2019-04-21T12:39:44.976Z,30.30
2019-04-21T12:42:18.570Z,30.30
2019-04-21T12:44:51.916Z,30.30
2019-04-21T12:47:25.889Z,30.30
2019-04-21T12:50:02.780Z,30.30
2019-04-21T12:52:35.718Z,30.30
2019-04-21T12:55:09.748Z,30.40
2019-04-21T12:57:43.444Z,30.30
2019-04-21T13:00:18.786Z,30.20
2019-04-21T13:02:52.140Z,30.20
2019-04-21T13:05:27.445Z,30.20
2019-04-21T13:07:59.842Z,30.10
2019-04-21T13:10:33.983Z,30.10
2019-04-21T13:13:10.081Z,30.00
2019-04-21T13:15:45.715Z,30.00
2019-04-21T13:18:20.477Z,30.00
2019-04-21T13:24:03.487Z,30.00
2019-04-21T13:26:50.442Z,29.90
2019-04-21T13:32:49.266Z,29.80
2019-04-21T13:35:23.414Z,29.80
2019-04-21T13:38:00.454Z,29.80
2019-04-21T13:40:53.408Z,29.80
2019-04-21T13:46:54.623Z,29.90
2019-04-21T13:50:25.559Z,29.90
2019-04-21T13:57:34.694Z,30.20
2019-04-21T14:00:33.813Z,30.20
2019-04-21T14:03:44.026Z,30.30
2019-04-21T14:10:23.893Z,30.50
2019-04-21T14:13:00.468Z,30.50
2019-04-21T14:15:33.080Z,30.50
2019-04-21T14:18:07.287Z,30.40
2019-04-21T14:20:43.008Z,30.40
2019-04-21T14:23:25.536Z,30.40
2019-04-21T14:25:59.800Z,30.40
2019-04-21T14:32:29.521Z,30.40
2019-04-21T14:35:03.077Z,30.50
2019-04-21T14:37:38.272Z,30.50
2019-04-21T14:40:16.212Z,30.40
2019-04-21T14:42:45.480Z,30.40
2019-04-21T14:45:32.881Z,30.30
2019-04-21T14:48:25.197Z,30.30
2019-04-21T14:51:09.181Z,30.40
2019-04-21T14:53:59.687Z,30.40
2019-04-21T14:56:33.456Z,30.30
2019-04-21T14:59:07.224Z,30.30
2019-04-21T15:01:40.050Z,30.30
2019-04-21T15:04:14.435Z,30.20
2019-04-21T15:06:47.550Z,30.20
2019-04-21T15:09:21.004Z,30.10
2019-04-21T15:11:53.920Z,30.00
2019-04-21T15:14:26.421Z,29.90
2019-04-21T15:16:58.813Z,29.90
2019-04-21T15:19:31.233Z,29.90
2019-04-21T15:22:03.986Z,29.90
2019-04-21T15:24:36.625Z,29.90
2019-04-21T15:27:12.909Z,29.90
2019-04-21T15:29:45.240Z,29.90
2019-04-21T15:32:18.799Z,30.00
2019-04-21T15:34:52.029Z,29.90
2019-04-21T15:37:26.034Z,29.90
2019-04-21T15:40:10.613Z,30.00
2019-04-21T15:42:34.652Z,30.00
2019-04-21T15:45:08.429Z,30.00
2019-04-21T15:47:42.128Z,29.90
2019-04-21T15:50:17.833Z,29.90
2019-04-21T15:52:49.764Z,29.90
2019-04-21T15:55:41.679Z,29.90
2019-04-21T15:58:16.479Z,29.90
2019-04-21T16:00:54.275Z,30.00
2019-04-21T16:03:28.928Z,30.00
2019-04-21T16:06:01.416Z,30.00
2019-04-21T16:08:35.165Z,29.90
2019-04-21T16:11:11.453Z,29.90
2019-04-21T16:13:45.706Z,29.90
2019-04-21T16:16:20.220Z,29.90
2019-04-21T16:18:52.287Z,29.90
2019-04-21T16:21:24.213Z,29.90
2019-04-21T16:24:00.445Z,29.90
2019-04-21T16:26:35.507Z,29.90
2019-04-21T16:29:09.370Z,29.80
2019-04-21T16:31:42.844Z,29.70
2019-04-21T16:34:15.780Z,29.60
2019-04-21T16:36:49.664Z,29.60
2019-04-21T16:39:23.156Z,29.60
2019-04-21T16:41:56.330Z,29.50
2019-04-21T16:44:29.407Z,29.50
2019-04-21T16:47:03.326Z,29.40
2019-04-21T16:49:35.833Z,29.40
2019-04-21T16:52:12.551Z,29.50
2019-04-21T16:55:05.956Z,29.40
2019-04-21T16:57:41.801Z,29.40
2019-04-21T17:00:32.764Z,29.20
2019-04-21T17:03:00.758Z,29.00
2019-04-21T17:11:59.909Z,29.00
2019-04-21T17:14:45.241Z,29.00
2019-04-21T17:17:27.242Z,29.10
2019-04-21T17:19:45.557Z,29.20
2019-04-21T17:22:15.539Z,29.10
2019-04-21T17:24:48.484Z,29.10
2019-04-21T17:27:27.433Z,29.30
2019-04-21T17:30:01.221Z,29.40
2019-04-21T17:32:38.750Z,29.50
2019-04-21T17:35:08.461Z,29.50
2019-04-21T17:37:42.342Z,29.60
2019-04-21T17:40:16.017Z,29.60
2019-04-21T17:42:53.682Z,29.70
2019-04-21T17:45:23.461Z,29.60
2019-04-21T17:48:04.609Z,29.60
2019-04-21T17:50:31.751Z,29.60
2019-04-21T17:53:26.574Z,29.60
2019-04-21T17:56:05.077Z,29.60
2019-04-21T17:58:43.313Z,29.60
2019-04-21T18:01:20.913Z,29.50
2019-04-21T18:03:58.755Z,29.50
2019-04-21T18:06:26.140Z,29.50
2019-04-21T18:09:08.901Z,29.50
2019-04-21T18:11:39.566Z,29.50
2019-04-21T18:13:51.753Z,29.50
2019-04-21T18:16:31.551Z,29.50
2019-04-21T18:18:59.144Z,29.60
2019-04-21T18:21:32.434Z,29.60
2019-04-21T18:24:15.519Z,29.50
2019-04-21T18:26:51.928Z,29.50
2019-04-21T18:29:18.876Z,29.50
2019-04-21T18:31:53.837Z,29.40
2019-04-21T18:34:28.775Z,29.40
2019-04-21T18:37:05.464Z,29.30
2019-04-21T18:39:50.040Z,29.30
2019-04-21T18:42:31.179Z,29.20
2019-04-21T18:45:34.400Z,29.10
2019-04-21T18:48:01.627Z,29.10
2019-04-21T18:50:24.165Z,29.10
2019-04-21T18:53:08.978Z,29.10
2019-04-21T18:55:39.193Z,29.10
2019-04-21T18:58:05.553Z,29.00
2019-04-21T19:00:40.517Z,29.00
2019-04-21T19:03:15.459Z,29.00
2019-04-21T19:05:53.809Z,29.00
2019-04-21T19:08:44.313Z,29.00
2019-04-21T19:11:14.895Z,29.00
2019-04-21T19:19:35.368Z,29.00
2019-04-21T19:21:46.988Z,28.90
2019-04-21T19:24:22.873Z,28.90
2019-04-21T19:29:29.827Z,28.90
2019-04-21T19:32:05.768Z,28.90
2019-04-21T19:34:23.703Z,28.90
2019-04-21T19:36:57.651Z,28.90
2019-04-21T19:39:39.155Z,28.90
2019-04-21T19:42:08.817Z,28.80
2019-04-21T19:44:47.050Z,28.80
2019-04-21T19:47:28.166Z,28.80
2019-04-21T19:50:01.929Z,28.80
2019-04-21T19:52:26.942Z,28.80
2019-04-21T19:54:50.777Z,28.80
2019-04-21T19:57:24.984Z,28.90
2019-04-21T20:00:00.341Z,28.80
2019-04-21T20:02:32.161Z,28.80
2019-04-21T20:05:10.702Z,28.80
2019-04-21T20:07:54.802Z,28.80
2019-04-21T20:10:32.759Z,28.80
2019-04-21T20:13:08.679Z,28.80
2019-04-21T20:15:41.522Z,28.80
2019-04-21T20:18:08.967Z,28.90
2019-04-21T20:20:28.901Z,28.80
2019-04-21T20:23:01.440Z,28.80
2019-04-21T20:25:39.358Z,28.80
2019-04-21T20:28:16.082Z,28.80
2019-04-21T20:31:03.873Z,28.70
2019-04-21T20:36:12.328Z,28.60
2019-04-21T20:38:35.875Z,28.60
2019-04-21T20:41:15.326Z,28.50
2019-04-21T20:44:09.873Z,28.50
2019-04-21T20:46:24.678Z,28.40
2019-04-21T20:48:51.265Z,28.30
2019-04-21T20:51:36.225Z,28.30
2019-04-21T20:54:01.842Z,28.40
2019-04-21T20:56:40.946Z,28.40
2019-04-21T20:59:13.859Z,28.40
2019-04-21T21:01:43.317Z,28.40
2019-04-21T21:04:15.003Z,28.50
2019-04-21T21:06:56.107Z,28.30
2019-04-21T21:09:25.591Z,28.20
2019-04-21T21:12:19.043Z,28.20
2019-04-21T21:14:36.326Z,28.20
2019-04-21T21:17:13.252Z,28.20
2019-04-21T21:19:45.676Z,28.20
2019-04-21T21:22:10.921Z,28.20
2019-04-21T21:24:50.538Z,28.10
2019-04-21T21:27:25.204Z,28.10
2019-04-21T21:29:56.468Z,28.10
2019-04-21T21:32:31.660Z,28.10
2019-04-21T21:35:09.524Z,28.10
2019-04-21T21:37:41.047Z,28.10
2019-04-21T21:40:18.174Z,28.20
2019-04-21T21:42:35.402Z,28.20
2019-04-21T21:45:12.565Z,28.20
2019-04-21T21:47:53.634Z,28.20
2019-04-21T21:50:25.125Z,28.20
2019-04-21T21:53:00.755Z,28.30
2019-04-21T21:55:25.606Z,28.30
2019-04-21T21:58:02.437Z,28.30
2019-04-21T22:00:37.008Z,28.30
2019-04-21T22:03:17.677Z,28.20
2019-04-21T22:05:48.578Z,28.20
2019-04-21T22:08:16.347Z,28.20
2019-04-21T22:10:49.412Z,28.10
2019-04-21T22:13:31.803Z,28.10
2019-04-21T22:16:02.897Z,28.00
2019-04-21T22:18:45.488Z,28.00
2019-04-21T22:21:15.663Z,28.00
2019-04-21T22:23:49.041Z,28.00
2019-04-21T22:26:11.550Z,27.90
2019-04-21T22:28:45.409Z,27.80
2019-04-21T22:31:22.919Z,27.80
2019-04-21T22:33:55.377Z,27.70
2019-04-21T22:36:35.250Z,27.80
2019-04-21T22:39:13.111Z,27.80
2019-04-21T22:41:41.073Z,27.80
2019-04-21T22:44:10.075Z,27.90
2019-04-21T22:46:56.110Z,27.90
2019-04-21T22:49:18.290Z,27.90
2019-04-21T22:51:51.937Z,27.90
2019-04-21T22:54:31.770Z,27.90
2019-04-21T22:57:06.487Z,27.90
2019-04-21T22:59:33.726Z,27.90
2019-04-21T23:02:13.752Z,28.00
2019-04-21T23:04:46.186Z,28.00
2019-04-21T23:07:17.690Z,28.10
2019-04-21T23:09:51.439Z,28.10
2019-04-21T23:12:28.190Z,28.20
2019-04-21T23:15:06.277Z,28.20
2019-04-21T23:17:55.944Z,28.30
2019-04-21T23:20:32.841Z,28.20
2019-04-21T23:23:06.728Z,28.10
2019-04-21T23:25:36.649Z,28.10
2019-04-21T23:28:05.133Z,28.20
2019-04-21T23:30:49.747Z,28.20
2019-04-21T23:33:06.589Z,28.20
2019-04-21T23:35:38.769Z,28.30
2019-04-21T23:38:10.504Z,28.30
2019-04-21T23:40:48.824Z,28.40
2019-04-21T23:43:19.234Z,28.30
2019-04-21T23:45:50.580Z,28.30
2019-04-21T23:48:36.453Z,28.40
2019-04-21T23:51:14.304Z,28.50
2019-04-21T23:53:33.287Z,28.50
2019-04-21T23:56:07.379Z,28.50
2019-04-21T23:58:40.302Z,28.50
